createdAt,value
2022-09-04T00:00:28.330Z,5.57
2022-09-04T00:03:56.263Z,5.82
2022-09-04T00:07:22.682Z,6.50
2022-09-04T00:10:30.373Z,5.50
2022-09-04T00:13:49.180Z,6.40
2022-09-04T00:16:54.793Z,7.05
2022-09-04T00:20:07.451Z,7.10
2022-09-04T00:23:20.357Z,6.20
2022-09-04T00:27:07.962Z,6.05
2022-09-04T00:30:14.866Z,6.00
2022-09-04T00:33:27.247Z,6.53
2022-09-04T00:36:30.468Z,6.57
2022-09-04T00:39:49.691Z,6.50
2022-09-04T00:43:10.186Z,5.38
2022-09-04T00:46:38.744Z,5.85
2022-09-04T00:50:00.959Z,6.68
2022-09-04T00:53:30.064Z,5.57
2022-09-04T00:56:52.972Z,6.88
2022-09-04T01:00:30.763Z,5.45
2022-09-04T01:03:38.451Z,6.03
2022-09-04T01:07:07.136Z,5.97
2022-09-04T01:10:23.983Z,5.72
2022-09-04T01:13:43.935Z,6.20
2022-09-04T01:16:59.871Z,5.45
2022-09-04T01:20:07.097Z,5.30
2022-09-04T01:23:36.511Z,5.70
2022-09-04T01:26:47.885Z,6.00
2022-09-04T01:30:15.069Z,5.63
2022-09-04T01:33:54.820Z,5.82
2022-09-04T01:37:05.511Z,6.37
2022-09-04T01:43:22.727Z,5.72
2022-09-04T01:46:50.235Z,5.97
2022-09-04T01:50:01.511Z,6.50
2022-09-04T01:53:23.853Z,5.85
2022-09-04T01:56:40.689Z,5.78
2022-09-04T02:00:04.969Z,6.15
2022-09-04T02:03:37.192Z,6.70
2022-09-04T02:07:17.205Z,6.57
2022-09-04T02:10:39.852Z,6.70
2022-09-04T02:14:08.605Z,5.88
2022-09-04T02:17:52.244Z,7.05
2022-09-04T02:21:02.859Z,7.72
2022-09-04T02:27:47.283Z,6.53
2022-09-04T02:31:08.142Z,6.65
2022-09-04T02:34:41.869Z,7.07
2022-09-04T02:41:31.488Z,6.13
2022-09-04T02:44:44.971Z,6.07
2022-09-04T02:48:13.705Z,5.20
2022-09-04T02:51:49.228Z,5.97
2022-09-04T02:55:15.879Z,5.10
2022-09-04T02:58:32.268Z,5.38
2022-09-04T03:01:41.358Z,5.63
2022-09-04T03:04:55.152Z,5.47
2022-09-04T03:08:04.972Z,5.32
2022-09-04T03:11:17.944Z,5.72
2022-09-04T03:14:28.304Z,4.45
2022-09-04T03:17:47.973Z,5.22
2022-09-04T03:21:06.308Z,5.00
2022-09-04T03:24:12.665Z,5.10
2022-09-04T03:27:16.574Z,5.03
2022-09-04T03:30:18.748Z,5.40
2022-09-04T03:33:46.531Z,4.47
2022-09-04T03:36:51.133Z,4.78
2022-09-04T03:40:08.241Z,5.60
2022-09-04T03:43:16.028Z,4.65
2022-09-04T03:46:23.806Z,5.88
2022-09-04T03:50:03.300Z,4.80
2022-09-04T03:53:27.158Z,5.20
2022-09-04T03:56:43.741Z,5.68
2022-09-04T04:00:08.585Z,4.97
2022-09-04T04:03:20.519Z,5.68
2022-09-04T04:06:28.011Z,5.85
2022-09-04T04:09:53.130Z,5.75
2022-09-04T04:13:27.104Z,5.95
2022-09-04T04:17:03.543Z,6.15
2022-09-04T04:20:24.222Z,6.10
2022-09-04T04:23:57.912Z,7.05
2022-09-04T04:27:29.260Z,5.93
2022-09-04T04:30:43.771Z,6.15
2022-09-04T04:33:55.240Z,6.10
2022-09-04T04:37:13.402Z,5.78
2022-09-04T04:40:27.939Z,7.00
2022-09-04T04:43:55.528Z,7.05
2022-09-04T04:47:07.296Z,7.20
2022-09-04T04:50:27.256Z,7.25
2022-09-04T04:53:42.295Z,6.68
2022-09-04T04:56:53.827Z,6.60
2022-09-04T05:00:27.641Z,7.10
2022-09-04T05:03:43.056Z,7.50
2022-09-04T05:07:14.722Z,7.47
2022-09-04T05:10:28.417Z,7.30
2022-09-04T05:13:41.724Z,6.18
2022-09-04T05:16:55.575Z,7.45
2022-09-04T05:20:34.612Z,7.10
2022-09-04T05:23:42.286Z,7.75
2022-09-04T05:26:57.660Z,7.22
2022-09-04T05:30:13.785Z,7.40
2022-09-04T05:33:34.360Z,7.35
2022-09-04T05:40:23.775Z,7.10
2022-09-04T05:43:46.563Z,7.53
2022-09-04T05:47:08.579Z,6.78
2022-09-04T05:50:25.376Z,7.15
2022-09-04T05:53:41.573Z,6.95
2022-09-04T05:56:57.989Z,6.97
2022-09-04T06:00:05.966Z,7.22
2022-09-04T06:03:22.679Z,8.20
2022-09-04T06:06:33.124Z,6.75
2022-09-04T06:09:51.168Z,7.15
2022-09-04T06:13:20.568Z,6.50
2022-09-04T06:16:45.400Z,6.28
2022-09-04T06:20:11.662Z,6.78
2022-09-04T06:23:54.863Z,5.80
2022-09-04T06:27:14.908Z,6.50
2022-09-04T06:30:17.928Z,6.10
2022-09-04T06:33:52.374Z,6.35
2022-09-04T06:37:12.785Z,5.55
2022-09-04T06:40:51.979Z,5.70
2022-09-04T06:44:25.981Z,4.95
2022-09-04T06:47:49.160Z,5.60
2022-09-04T06:50:59.538Z,5.47
2022-09-04T06:57:39.746Z,4.78
2022-09-04T07:01:05.741Z,4.63
2022-09-04T07:04:14.080Z,4.55
2022-09-04T07:07:43.799Z,4.78
2022-09-04T07:11:02.712Z,4.60
2022-09-04T07:14:20.068Z,4.40
2022-09-04T07:17:30.935Z,4.80
2022-09-04T07:20:43.456Z,4.50
2022-09-04T07:23:47.994Z,4.50
2022-09-04T07:26:58.772Z,4.25
2022-09-04T07:30:15.596Z,4.57
2022-09-04T07:33:44.280Z,3.70
2022-09-04T07:36:56.192Z,4.15
2022-09-04T07:40:08.214Z,4.00
2022-09-04T07:43:30.292Z,4.15
2022-09-04T07:47:01.901Z,3.67
2022-09-04T07:50:09.664Z,3.55
2022-09-04T07:53:32.427Z,3.50
2022-09-04T07:57:05.883Z,3.28
2022-09-04T08:00:17.938Z,3.65
2022-09-04T08:03:55.295Z,3.97
2022-09-04T08:07:00.379Z,3.50
2022-09-04T08:10:32.971Z,3.75
2022-09-04T08:13:44.460Z,3.70
2022-09-04T08:16:46.046Z,3.63
2022-09-04T08:19:52.405Z,3.55
2022-09-04T08:23:15.003Z,3.95
2022-09-04T08:26:50.852Z,3.20
2022-09-04T08:30:05.403Z,3.70
2022-09-04T08:33:10.169Z,3.60
2022-09-04T08:36:25.252Z,3.70
2022-09-04T08:39:42.312Z,3.38
2022-09-04T08:43:05.390Z,3.50
2022-09-04T08:46:27.021Z,4.20
2022-09-04T08:50:02.388Z,4.03
2022-09-04T08:53:19.277Z,3.67
2022-09-04T08:56:37.749Z,3.20
2022-09-04T08:59:57.826Z,3.40
2022-09-04T09:03:42.341Z,3.20
2022-09-04T09:07:09.545Z,3.20
2022-09-04T09:10:33.256Z,3.15
2022-09-04T09:14:32.008Z,2.80
2022-09-04T09:17:39.327Z,2.97
2022-09-04T09:21:00.005Z,3.40
2022-09-04T09:24:35.867Z,2.88
2022-09-04T09:28:20.302Z,3.03
2022-09-04T09:31:27.952Z,3.47
2022-09-04T09:34:59.873Z,3.47
2022-09-04T09:38:47.852Z,3.13
2022-09-04T09:55:05.365Z,2.25
2022-09-04T09:58:22.169Z,2.70
2022-09-04T10:01:42.658Z,2.60
2022-09-04T10:04:49.927Z,2.30
2022-09-04T10:08:10.530Z,2.70
2022-09-04T10:11:50.466Z,2.78
2022-09-04T10:15:34.166Z,2.70
2022-09-04T10:19:16.433Z,2.90
2022-09-04T10:22:33.125Z,2.50
2022-09-04T10:26:08.971Z,2.80
2022-09-04T10:29:23.771Z,2.92
2022-09-04T10:32:32.927Z,2.50
2022-09-04T10:35:44.064Z,2.92
2022-09-04T10:39:32.756Z,3.08
2022-09-04T10:43:09.717Z,2.55
2022-09-04T10:46:26.394Z,2.83
2022-09-04T10:50:06.582Z,3.10
2022-09-04T10:53:36.599Z,2.78
2022-09-04T10:56:49.796Z,3.53
2022-09-04T11:00:08.899Z,2.85
2022-09-04T11:03:22.939Z,3.10
2022-09-04T11:06:53.644Z,3.10
2022-09-04T11:10:24.448Z,2.85
2022-09-04T11:13:51.746Z,2.42
2022-09-04T11:17:32.868Z,3.10
2022-09-04T11:21:08.925Z,3.10
2022-09-04T11:24:21.691Z,2.67
2022-09-04T11:27:49.006Z,2.70
2022-09-04T11:31:02.338Z,2.72
2022-09-04T11:34:42.005Z,3.00
2022-09-04T11:38:05.758Z,3.40
2022-09-04T11:41:29.418Z,2.78
2022-09-04T11:44:50.515Z,2.47
2022-09-04T11:48:14.255Z,2.88
2022-09-04T11:51:34.311Z,3.22
2022-09-04T11:55:03.313Z,2.90
2022-09-04T11:58:23.644Z,3.10
2022-09-04T12:01:37.876Z,2.88
2022-09-04T12:05:07.279Z,2.72
2022-09-04T12:08:38.899Z,2.80
2022-09-04T12:12:11.461Z,2.90
2022-09-04T12:15:32.134Z,2.58
2022-09-04T12:18:44.772Z,2.83
2022-09-04T12:22:14.728Z,3.13
2022-09-04T12:25:34.529Z,2.70
2022-09-04T12:29:00.339Z,3.08
2022-09-04T12:32:42.557Z,2.90
2022-09-04T12:36:21.562Z,2.40
2022-09-04T12:39:57.178Z,2.72
2022-09-04T12:43:16.929Z,2.50
2022-09-04T12:46:50.379Z,2.53
2022-09-04T12:50:12.201Z,2.50
2022-09-04T12:53:20.801Z,2.67
2022-09-04T12:56:22.741Z,2.83
2022-09-04T12:59:47.771Z,2.60
2022-09-04T13:03:17.275Z,2.63
2022-09-04T13:06:42.226Z,2.67
2022-09-04T13:09:54.022Z,2.83
2022-09-04T13:13:31.368Z,2.38
2022-09-04T13:16:55.108Z,2.22
2022-09-04T13:20:20.886Z,2.80
2022-09-04T13:23:46.263Z,2.50
2022-09-04T13:27:02.445Z,2.60
2022-09-04T13:30:21.948Z,2.60
2022-09-04T13:33:54.814Z,2.75
2022-09-04T13:37:06.425Z,2.40
2022-09-04T13:40:55.949Z,2.20
2022-09-04T13:44:16.192Z,2.50
2022-09-04T13:50:41.477Z,2.45
2022-09-04T13:54:06.559Z,2.28
2022-09-04T13:57:17.006Z,2.10
2022-09-04T14:00:19.527Z,2.10
2022-09-04T14:03:41.734Z,2.00
2022-09-04T14:06:55.496Z,1.80
2022-09-04T14:10:06.299Z,1.95
2022-09-04T14:13:33.229Z,2.08
2022-09-04T14:16:43.999Z,1.88
2022-09-04T14:20:03.375Z,2.17
2022-09-04T14:23:33.193Z,1.70
2022-09-04T14:27:22.204Z,2.17
2022-09-04T14:30:24.180Z,2.15
2022-09-04T14:33:36.151Z,1.77
2022-09-04T14:36:56.375Z,2.22
2022-09-04T14:40:09.893Z,2.10
2022-09-04T14:43:28.536Z,2.13
2022-09-04T14:47:16.640Z,2.00
2022-09-04T14:50:19.351Z,1.92
2022-09-04T14:53:32.524Z,1.83
2022-09-04T15:00:18.730Z,1.60
2022-09-04T15:03:27.493Z,1.60
2022-09-04T15:07:10.707Z,1.60
2022-09-04T15:10:24.295Z,1.80
2022-09-04T15:13:37.891Z,1.70
2022-09-04T15:16:39.471Z,1.77
2022-09-04T15:19:49.519Z,2.05
2022-09-04T15:23:02.941Z,1.77
2022-09-04T15:26:09.751Z,1.80
2022-09-04T15:29:25.873Z,1.70
2022-09-04T15:32:31.448Z,1.88
2022-09-04T15:35:35.099Z,1.70
2022-09-04T15:38:37.991Z,1.83
2022-09-04T15:41:44.371Z,2.13
2022-09-04T15:44:47.909Z,1.95
2022-09-04T15:48:19.951Z,1.60
2022-09-04T15:51:42.865Z,1.70
2022-09-04T15:54:44.420Z,1.63
2022-09-04T15:58:05.140Z,1.77
2022-09-04T16:01:17.142Z,1.63
2022-09-04T16:04:29.308Z,1.92
2022-09-04T16:08:03.505Z,1.60
2022-09-04T16:11:31.253Z,1.80
2022-09-04T16:14:44.548Z,1.70
2022-09-04T16:17:52.373Z,1.70
2022-09-04T16:21:01.459Z,1.98
2022-09-04T16:24:17.063Z,1.90
2022-09-04T16:27:22.811Z,1.70
2022-09-04T16:30:36.218Z,1.88
2022-09-04T16:33:43.858Z,2.08
2022-09-04T16:36:51.410Z,2.10
2022-09-04T16:40:21.885Z,2.03
2022-09-04T16:43:29.003Z,1.90
2022-09-04T16:46:37.349Z,2.08
2022-09-04T16:49:59.987Z,2.13
2022-09-04T16:53:13.825Z,2.08
2022-09-04T16:56:37.205Z,1.92
2022-09-04T16:59:48.605Z,2.05
2022-09-04T17:03:07.655Z,1.95
2022-09-04T17:06:22.215Z,2.08
2022-09-04T17:10:07.098Z,2.20
2022-09-04T17:13:19.376Z,2.10
2022-09-04T17:16:36.980Z,1.90
2022-09-04T17:19:38.659Z,1.90
2022-09-04T17:29:00.262Z,1.90
2022-09-04T17:29:08.420Z,2.00
2022-09-04T17:30:07.420Z,1.95
2022-09-04T17:38:59.773Z,2.00
2022-09-04T17:40:53.110Z,2.15
2022-09-04T17:41:38.244Z,2.95
2022-09-04T17:44:34.101Z,4.72
2022-09-04T17:47:43.639Z,3.90
2022-09-04T17:51:02.958Z,3.45
2022-09-04T17:54:13.418Z,2.83
2022-09-04T17:57:20.191Z,3.28
2022-09-04T18:00:29.102Z,3.22
2022-09-04T18:04:22.785Z,4.07
2022-09-04T18:08:08.208Z,4.18
2022-09-04T18:11:12.869Z,3.65
2022-09-04T18:14:31.762Z,3.60
2022-09-04T18:17:58.837Z,4.20
2022-09-04T18:21:19.229Z,2.80
2022-09-04T18:24:40.035Z,3.30
2022-09-04T18:27:50.564Z,3.17
2022-09-04T18:37:08.566Z,3.17
2022-09-04T18:37:22.647Z,3.10
2022-09-04T18:38:27.440Z,3.28
2022-09-04T18:49:15.946Z,3.40
2022-09-04T18:50:32.417Z,3.10
2022-09-04T18:50:37.434Z,3.67
2022-09-04T18:51:58.126Z,3.10
2022-09-04T18:55:08.922Z,3.42
2022-09-04T18:58:13.520Z,3.70
2022-09-04T19:01:41.543Z,3.42
2022-09-04T19:04:53.231Z,3.60
2022-09-04T19:08:01.529Z,3.50
2022-09-04T19:11:21.321Z,3.80
2022-09-04T19:14:30.436Z,3.88
2022-09-04T19:17:38.519Z,3.90
2022-09-04T19:20:48.128Z,3.50
2022-09-04T19:24:05.339Z,3.40
2022-09-04T19:27:26.570Z,3.65
2022-09-04T19:30:53.647Z,4.10
2022-09-04T19:34:07.753Z,4.25
2022-09-04T19:38:46.342Z,3.85
2022-09-04T19:46:05.048Z,3.95
2022-09-04T19:48:18.878Z,4.30
2022-09-04T19:53:35.517Z,3.65
2022-09-04T19:55:25.158Z,3.55
2022-09-04T19:58:44.059Z,3.60
2022-09-04T20:01:59.549Z,3.85
2022-09-04T20:05:16.457Z,3.72
2022-09-04T20:08:30.724Z,3.40
2022-09-04T20:11:43.200Z,3.67
2022-09-04T20:15:13.790Z,3.15
2022-09-04T20:18:19.617Z,3.75
2022-09-04T20:21:25.894Z,3.50
2022-09-04T20:25:01.573Z,3.92
2022-09-04T20:28:21.940Z,3.47
2022-09-04T20:31:45.932Z,4.07
2022-09-04T20:34:56.539Z,3.40
2022-09-04T20:38:12.355Z,3.15
2022-09-04T20:41:24.879Z,3.58
2022-09-04T20:46:13.074Z,3.17
2022-09-04T20:52:46.323Z,3.40
2022-09-04T20:55:34.116Z,3.60
2022-09-04T21:03:13.056Z,3.40
2022-09-04T21:03:13.423Z,3.50
2022-09-04T21:06:07.933Z,3.78
2022-09-04T21:09:32.308Z,3.80
2022-09-04T21:12:42.575Z,3.28
2022-09-04T21:15:46.963Z,3.33
2022-09-04T21:19:28.510Z,3.90
2022-09-04T21:22:58.888Z,3.50
2022-09-04T21:26:16.225Z,4.00
2022-09-04T21:29:42.578Z,3.35
2022-09-04T21:33:28.257Z,3.25
2022-09-04T21:36:39.937Z,3.05
2022-09-04T21:40:21.616Z,3.33
2022-09-04T21:43:52.567Z,3.25
2022-09-04T21:47:08.706Z,3.40
2022-09-04T21:50:30.361Z,3.15
2022-09-04T21:53:55.020Z,2.95
2022-09-04T22:02:30.297Z,3.58
2022-09-04T22:02:49.761Z,3.50
2022-09-04T22:04:30.859Z,3.72
2022-09-04T22:11:30.085Z,3.35
2022-09-04T22:13:42.610Z,3.67
2022-09-04T22:14:56.323Z,3.38
2022-09-04T22:18:14.432Z,3.53
2022-09-04T22:22:03.577Z,3.33
2022-09-04T22:25:08.872Z,3.63
2022-09-04T22:29:15.355Z,4.00
2022-09-04T22:32:39.094Z,3.38
2022-09-04T22:43:13.190Z,3.63
2022-09-04T22:46:30.920Z,3.50
2022-09-04T22:49:59.704Z,3.55
2022-09-04T22:53:18.109Z,3.40
2022-09-04T22:56:41.027Z,4.20
2022-09-04T23:00:09.710Z,3.78
2022-09-04T23:03:25.187Z,3.50
2022-09-04T23:11:26.986Z,3.38
2022-09-04T23:17:24.650Z,3.45
2022-09-04T23:26:35.418Z,3.80
2022-09-04T23:26:51.093Z,3.70
2022-09-04T23:28:34.776Z,3.67
2022-09-04T23:32:07.454Z,4.00
2022-09-04T23:35:39.157Z,4.75
2022-09-04T23:38:55.893Z,4.20
2022-09-04T23:42:22.343Z,4.00
2022-09-04T23:46:02.347Z,3.75
2022-09-04T23:49:20.997Z,4.38
2022-09-04T23:52:27.355Z,3.63
2022-09-04T23:55:51.369Z,3.42
2022-09-04T23:59:36.546Z,3.85
